Time;durP1;ratioP1;P1;durP2;ratioP2;P2;SDS_P1;SDS_P2;PMS_P1;PMS_P2;Temp;Humidity;BMP_temperature;BMP_pressure;BME280_temperature;BME280_humidity;BME280_pressure;Samples;Min_cycle;Max_cycle;Signal;HPM_P1;HPM_P2
2022/06/20 00:01:28;;;;;;;3.10;2.10;;;;;;;17.36;57.26;100940.27;109050;1243;74583;-78
2022/06/20 00:03:57;;;;;;;4.00;2.20;;;;;;;17.36;57.47;100935.66;108577;1243;71918;-81
2022/06/20 00:06:25;;;;;;;2.70;1.90;;;;;;;17.37;57.49;100933.79;108241;1243;70252;-77
2022/06/20 00:08:55;;;;;;;3.80;2.10;;;;;;;17.34;57.96;100936.45;107802;1244;71730;-82
2022/06/20 00:11:36;;;;;;;3.50;2.20;;;;;;;17.29;58.26;100935.98;107989;1243;61357;-80
2022/06/20 00:14:05;;;;;;;3.80;2.20;;;;;;;17.23;58.64;100935.55;107667;1243;60815;-79
2022/06/20 00:16:34;;;;;;;4.70;2.20;;;;;;;17.16;58.78;100928.08;107921;1243;73696;-79
2022/06/20 00:19:04;;;;;;;4.80;2.30;;;;;;;17.09;59.06;100926.70;108054;1243;70182;-78
2022/06/20 00:21:32;;;;;;;6.30;2.00;;;;;;;17.02;59.15;100927.70;107927;1243;68739;-81
2022/06/20 00:24:01;;;;;;;6.70;2.60;;;;;;;16.98;58.65;100928.66;108122;1243;71458;-78
2022/06/20 00:26:30;;;;;;;5.00;2.20;;;;;;;16.95;60.38;100931.34;107835;1243;59710;-79
2022/06/20 00:29:01;;;;;;;6.20;2.60;;;;;;;16.93;60.70;100924.02;107644;1243;61364;-79
2022/06/20 00:31:30;;;;;;;2.60;2.00;;;;;;;16.89;61.12;100919.79;107902;1243;72960;-78
2022/06/20 00:33:59;;;;;;;5.00;2.20;;;;;;;16.97;60.88;100914.60;107545;1243;70368;-78
2022/06/20 00:36:28;;;;;;;3.70;2.10;;;;;;;16.93;61.10;100916.96;107787;1243;68806;-81
2022/06/20 00:38:57;;;;;;;7.20;2.80;;;;;;;16.90;61.51;100916.19;107767;1243;71974;-79
2022/06/20 00:41:31;;;;;;;7.70;2.00;;;;;;;16.86;61.90;100914.14;107997;1243;62264;-79
2022/06/20 00:44:01;;;;;;;3.50;2.20;;;;;;;16.83;62.11;100912.82;107929;1243;59746;-79
2022/06/20 00:46:47;;;;;;;4.40;2.30;;;;;;;16.79;62.43;100915.00;107832;1244;72939;-79
2022/06/20 00:49:31;;;;;;;4.70;2.40;;;;;;;16.74;62.72;100915.61;107918;1243;70497;-80
2022/06/20 00:52:23;;;;;;;5.00;2.50;;;;;;;16.69;62.29;100912.89;107495;1244;68723;-79
2022/06/20 00:54:57;;;;;;;5.00;2.40;;;;;;;16.67;63.15;100913.61;107689;1243;74020;-77
2022/06/20 00:57:43;;;;;;;3.30;2.50;;;;;;;16.64;63.92;100907.08;107909;1243;61024;-80
2022/06/20 01:00:20;;;;;;;3.80;2.40;;;;;;;16.62;64.31;100908.98;107882;1243;61160;-79
2022/06/20 01:02:57;;;;;;;3.80;2.80;;;;;;;16.61;64.42;100902.17;108061;1243;75142;-79
2022/06/20 01:05:35;;;;;;;4.40;2.50;;;;;;;16.60;64.65;100896.70;108007;1243;71892;-82
2022/06/20 01:08:30;;;;;;;3.20;2.50;;;;;;;16.56;64.95;100894.05;107771;1243;71096;-83
2022/06/20 01:11:11;;;;;;;4.10;2.70;;;;;;;16.53;65.21;100899.65;107709;1244;72390;-81
2022/06/20 01:13:40;;;;;;;4.30;2.70;;;;;;;16.48;65.40;100898.14;107750;1243;62981;-80
2022/06/20 01:16:23;;;;;;;4.30;2.30;;;;;;;16.43;65.27;100896.35;107793;1243;59996;-79
2022/06/20 01:18:54;;;;;;;5.20;2.70;;;;;;;16.41;66.09;100897.61;107647;1243;75004;-76
2022/06/20 01:21:30;;;;;;;5.00;2.60;;;;;;;16.41;66.07;100897.05;107603;1243;71633;-80
2022/06/20 01:24:36;;;;;;;6.10;2.40;;;;;;;16.40;66.38;100894.67;107622;1243;70935;-80
2022/06/20 01:27:40;;;;;;;5.10;2.70;;;;;;;16.41;66.32;100896.91;107852;1244;73018;-80
2022/06/20 01:30:09;;;;;;;6.60;3.00;;;;;;;16.37;64.24;100901.64;107984;1243;61222;-81
2022/06/20 01:32:39;;;;;;;4.20;2.60;;;;;;;16.35;65.27;100899.05;107821;1242;60426;-81
2022/06/20 01:35:12;;;;;;;5.40;2.50;;;;;;;16.31;66.92;100900.44;107763;1243;74847;-81
2022/06/20 01:37:42;;;;;;;6.20;2.70;;;;;;;16.28;66.78;100900.55;107926;1243;72303;-79
2022/06/20 01:40:15;;;;;;;7.00;3.10;;;;;;;16.27;67.86;100906.09;107815;1243;71126;-81
2022/06/20 01:42:44;;;;;;;4.70;3.00;;;;;;;16.26;67.87;100903.05;107794;1243;72378;-82
2022/06/20 01:48:17;;;;;;;4.40;3.10;;;;;;;16.29;67.54;100898.55;107646;1244;60091;-80
2022/06/20 01:50:46;;;;;;;8.10;2.90;;;;;;;16.33;67.45;100902.40;107787;1242;71883;-81
2022/06/20 01:53:21;;;;;;;5.70;2.90;;;;;;;16.32;67.95;100904.36;107794;1243;70012;-79
2022/06/20 01:55:53;;;;;;;4.70;3.10;;;;;;;16.32;67.80;100903.41;107833;1243;69509;-82
2022/06/20 01:58:29;;;;;;;5.90;2.80;;;;;;;16.30;68.37;100900.92;107925;1243;72462;-82
2022/06/20 02:01:00;;;;;;;5.40;3.00;;;;;;;16.28;68.44;100897.73;107786;1242;63023;-80
2022/06/20 02:03:33;;;;;;;6.70;3.10;;;;;;;16.27;68.76;100896.25;107924;1243;61478;-80
2022/06/20 02:06:03;;;;;;;3.60;3.10;;;;;;;16.26;69.06;100896.37;107722;1243;72234;-79
2022/06/20 02:08:34;;;;;;;4.70;2.90;;;;;;;16.24;69.04;100897.80;107441;1243;71602;-82
2022/06/20 02:11:17;;;;;;;5.70;2.90;;;;;;;16.23;69.45;100900.05;107939;1243;69901;-79
2022/06/20 02:13:52;;;;;;;5.10;3.30;;;;;;;16.22;68.56;100904.78;107900;1243;72473;-83
2022/06/20 02:16:23;;;;;;;5.40;3.40;;;;;;;16.21;68.83;100911.06;107738;1243;63048;-78
2022/06/20 02:18:58;;;;;;;4.20;3.10;;;;;;;16.21;68.53;100909.70;107653;1244;60119;-80
2022/06/20 02:21:31;;;;;;;3.60;2.90;;;;;;;16.26;68.66;100911.88;107892;1243;72943;-80
2022/06/20 02:24:11;;;;;;;9.80;3.70;;;;;;;16.29;68.17;100910.02;107933;1243;72434;-81
2022/06/20 02:26:43;;;;;;;7.70;3.40;;;;;;;16.34;68.66;100911.08;107917;1244;69653;-81
2022/06/20 02:29:23;;;;;;;7.90;3.50;;;;;;;16.39;68.89;100908.50;107907;1243;73907;-81
2022/06/20 02:31:58;;;;;;;8.20;3.40;;;;;;;16.51;68.56;100906.83;107893;1243;61874;-80
2022/06/20 02:34:29;;;;;;;5.90;3.30;;;;;;;16.59;68.26;100912.25;107745;1243;61603;-80
2022/06/20 02:37:07;;;;;;;5.20;3.50;;;;;;;16.62;68.18;100911.60;107855;1244;73048;-79
2022/06/20 02:39:40;;;;;;;8.40;3.30;;;;;;;16.60;68.13;100908.08;108056;1243;70369;-80
2022/06/20 02:42:18;;;;;;;5.60;3.50;;;;;;;16.57;68.31;100905.80;107873;1243;70607;-81
2022/06/20 02:44:49;;;;;;;10.70;4.00;;;;;;;16.53;68.77;100904.23;107958;1243;74342;-80
2022/06/20 02:47:21;;;;;;;10.10;3.30;;;;;;;16.51;69.01;100903.18;107432;1243;63229;-82
2022/06/20 02:49:54;;;;;;;5.90;3.20;;;;;;;16.50;68.26;100903.61;107744;1243;59303;-80
2022/06/20 02:52:36;;;;;;;6.70;3.40;;;;;;;16.53;68.95;100909.14;107930;1242;71987;-83
2022/06/20 02:55:07;;;;;;;5.90;3.70;;;;;;;16.55;68.91;100907.70;107772;1244;72314;-80
2022/06/20 02:57:43;;;;;;;11.50;5.30;;;;;;;16.56;69.18;100909.01;107712;1242;71238;-78
2022/06/20 03:00:17;;;;;;;11.40;4.10;;;;;;;16.54;69.13;100912.02;108021;1243;74612;-79
2022/06/20 03:02:54;;;;;;;7.40;4.00;;;;;;;16.53;69.16;100912.83;107728;1243;61052;-80
2022/06/20 03:05:23;;;;;;;14.80;4.20;;;;;;;16.53;68.78;100908.08;107964;1242;61242;-82
2022/06/20 03:07:53;;;;;;;11.20;4.70;;;;;;;16.54;68.84;100905.48;107571;1243;75178;-79
2022/06/20 03:10:50;;;;;;;5.10;3.80;;;;;;;16.57;69.42;100908.77;108112;1243;71535;-81
2022/06/20 03:13:22;;;;;;;7.40;4.30;;;;;;;16.62;69.60;100907.05;108232;1243;71018;-78
2022/06/20 03:15:53;;;;;;;11.70;5.00;;;;;;;16.68;69.13;100909.09;109395;1242;72587;-78
2022/06/20 03:18:24;;;;;;;8.40;4.30;;;;;;;16.72;69.21;100906.98;109095;1243;61484;-79
2022/06/20 03:20:53;;;;;;;6.90;4.70;;;;;;;16.78;69.00;100906.11;108623;1243;62182;-80
2022/06/20 03:23:28;;;;;;;10.00;3.90;;;;;;;16.84;68.76;100904.45;108324;1243;73121;-80
2022/06/20 03:26:01;;;;;;;8.30;4.90;;;;;;;16.89;68.92;100901.17;108197;1243;72281;-80
2022/06/20 03:28:31;;;;;;;;;;;;;;;16.97;68.63;100899.36;108320;1242;70029;-81
2022/06/20 03:31:04;;;;;;;;;;;;;;;17.04;69.15;100897.42;108426;1243;71544;-79
2022/06/20 03:33:33;;;;;;;13.00;6.20;;;;;;;17.11;68.73;100893.45;108123;1243;62108;-80
2022/06/20 03:36:25;;;;;;;13.20;8.10;;;;;;;17.18;68.74;100893.05;107882;1243;61715;-81
2022/06/20 03:38:56;;;;;;;12.70;6.00;;;;;;;17.26;68.43;100895.12;107963;1243;72515;-79
2022/06/20 03:41:27;;;;;;;8.90;4.90;;;;;;;17.35;68.89;100889.87;107570;1242;72295;-79
2022/06/20 03:44:38;;;;;;;14.40;5.20;;;;;;;17.42;68.41;100884.92;108071;1243;70914;-80
2022/06/20 03:47:27;;;;;;;8.10;4.20;;;;;;;17.55;68.75;100884.89;107918;1244;71655;-81
2022/06/20 03:50:08;;;;;;;10.20;4.60;;;;;;;17.64;68.46;100880.76;108011;1243;59630;-81
2022/06/20 03:52:57;;;;;;;6.70;4.70;;;;;;;17.77;68.44;100881.27;108127;1243;60515;-81
2022/06/20 03:55:47;;;;;;;9.90;4.70;;;;;;;17.90;68.21;100878.07;108008;1243;73227;-81
2022/06/20 03:58:51;;;;;;;10.70;4.70;;;;;;;18.02;67.78;100876.45;108249;1243;69597;-80
2022/06/20 04:01:30;;;;;;;8.90;4.90;;;;;;;18.19;67.67;100876.69;108060;1243;69571;-82
2022/06/20 04:04:10;;;;;;;11.10;4.80;;;;;;;18.29;67.24;100871.78;107833;1244;64298;-82
2022/06/20 04:07:07;;;;;;;12.50;4.90;;;;;;;18.43;67.16;100872.31;108010;1240;60539;-82
2022/06/20 04:12:58;;;;;;;10.20;4.30;;;;;;;18.77;65.66;100870.84;107741;1244;63019;-79
2022/06/20 04:16:11;;;;;;;9.30;4.40;;;;;;;18.92;64.90;100871.12;107898;1243;60766;-80
2022/06/20 04:18:54;;;;;;;7.70;4.80;;;;;;;19.11;64.15;100873.36;107734;1243;70131;-81
2022/06/20 04:21:56;;;;;;;;;;;;;;;19.23;63.52;100870.06;108049;1243;73830;-81
2022/06/20 04:24:35;;;;;;;7.00;4.20;;;;;;;19.41;62.29;100868.16;107881;1243;60931;-78
2022/06/20 04:27:18;;;;;;;9.50;4.40;;;;;;;19.50;61.12;100871.58;107982;1244;60983;-76
2022/06/20 04:30:03;;;;;;;10.90;5.50;;;;;;;19.60;60.68;100873.02;107868;1244;63575;-81
2022/06/20 04:33:07;;;;;;;7.90;4.60;;;;;;;19.71;59.97;100871.65;107915;1242;72224;-82
2022/06/20 04:35:46;;;;;;;8.20;4.20;;;;;;;19.83;59.35;100864.68;107301;1244;70945;-81
2022/06/20 04:38:24;;;;;;;7.10;4.60;;;;;;;19.96;58.81;100863.11;107799;1244;63217;-82
2022/06/20 04:41:05;;;;;;;7.50;5.20;;;;;;;20.04;58.34;100860.77;108080;1243;60521;-81
2022/06/20 04:43:59;;;;;;;13.90;6.10;;;;;;;20.11;57.82;100862.11;108103;1243;61116;-81
2022/06/20 04:46:48;;;;;;;10.70;4.60;;;;;;;20.17;58.05;100862.43;108114;1243;64390;-81
2022/06/20 04:49:18;;;;;;;9.50;4.50;;;;;;;20.26;58.21;100859.42;108139;1243;71677;-83
2022/06/20 04:51:49;;;;;;;9.80;6.00;;;;;;;20.36;57.80;100863.61;107946;1243;71249;-82
2022/06/20 04:54:21;;;;;;;8.30;5.40;;;;;;;20.43;57.33;100866.41;108003;1242;63808;-84
2022/06/20 04:56:54;;;;;;;6.20;4.10;;;;;;;20.51;57.14;100865.34;108034;1244;59641;-81
2022/06/20 04:59:30;;;;;;;12.20;4.70;;;;;;;20.60;57.12;100864.08;108183;1244;59620;-84
2022/06/20 05:02:04;;;;;;;10.70;4.40;;;;;;;20.67;56.88;100861.23;108075;1244;62827;-79
2022/06/20 05:04:38;;;;;;;7.70;4.50;;;;;;;20.76;56.58;100859.09;107917;1243;72336;-80
2022/06/20 05:07:28;;;;;;;18.10;5.20;;;;;;;20.87;56.22;100857.39;107938;1244;61917;-79
2022/06/20 05:10:32;;;;;;;6.70;3.70;;;;;;;21.02;56.00;100856.06;107925;1244;62413;-80
2022/06/20 05:13:13;;;;;;;11.20;4.10;;;;;;;21.17;55.13;100852.31;107902;1243;60385;-80
2022/06/20 05:15:49;;;;;;;5.00;3.40;;;;;;;21.28;54.71;100850.36;108199;1243;59619;-81
2022/06/20 05:18:40;;;;;;;10.70;4.40;;;;;;;21.43;54.39;100857.83;107958;1243;74327;-81
2022/06/20 05:21:25;;;;;;;6.90;3.50;;;;;;;21.55;53.93;100850.59;107936;1244;62091;-82
2022/06/20 05:23:59;;;;;;;4.20;2.90;;;;;;;21.71;53.38;100848.70;108017;1243;61840;-80
2022/06/20 05:26:34;;;;;;;6.20;3.50;;;;;;;21.88;52.65;100844.78;108003;1243;72315;-82
2022/06/20 05:29:09;;;;;;;5.00;2.80;;;;;;;22.04;51.63;100838.85;108164;1243;59671;-81
2022/06/20 05:31:45;;;;;;;5.90;3.20;;;;;;;22.17;51.39;100838.20;108061;1243;59535;-84
2022/06/20 05:34:36;;;;;;;4.60;3.00;;;;;;;22.29;50.92;100839.10;108185;1243;74482;-84
2022/06/20 05:37:43;;;;;;;4.60;2.90;;;;;;;22.36;49.44;100834.15;108026;1244;72791;-84
2022/06/20 05:40:24;;;;;;;5.30;2.90;;;;;;;22.45;49.32;100831.17;107917;1244;60618;-82
2022/06/20 05:42:53;;;;;;;3.50;2.70;;;;;;;22.60;49.32;100832.63;108089;1243;62505;-82
2022/06/20 05:45:24;;;;;;;6.80;2.70;;;;;;;22.68;48.84;100827.40;108202;1243;60359;-82
2022/06/20 05:47:58;;;;;;;4.60;2.80;;;;;;;22.76;48.78;100830.45;107992;1244;59653;-82
2022/06/20 05:50:56;;;;;;;7.10;4.20;;;;;;;22.94;48.47;100825.95;107859;1244;63714;-81
2022/06/20 05:53:35;;;;;;;6.60;3.10;;;;;;;23.15;48.68;100825.36;107879;1243;72294;-83
2022/06/20 05:56:13;;;;;;;4.40;2.90;;;;;;;23.29;48.11;100810.80;108202;1243;70334;-81
2022/06/20 05:58:45;;;;;;;5.20;2.90;;;;;;;23.40;47.49;100811.55;107992;1245;63684;-80
2022/06/20 06:01:22;;;;;;;6.50;2.70;;;;;;;23.47;46.40;100805.33;108268;1242;60592;-81
2022/06/20 06:04:06;;;;;;;4.70;2.60;;;;;;;23.58;46.10;100806.98;108092;1243;61586;-86
2022/06/20 06:07:19;;;;;;;5.90;2.90;;;;;;;23.72;45.85;100801.33;107682;1245;74783;-83
2022/06/20 06:09:51;;;;;;;4.70;2.70;;;;;;;23.77;45.36;100797.14;107686;1244;62949;-83
2022/06/20 06:12:56;;;;;;;6.80;3.10;;;;;;;23.84;44.88;100797.68;107907;1243;70190;-81
2022/06/20 06:19:39;;;;;;;5.20;2.70;;;;;;;24.16;44.40;100796.17;107940;1243;59541;-83
2022/06/20 06:22:25;;;;;;;5.40;2.50;;;;;;;24.40;43.66;100791.55;107979;1242;60465;-82
2022/06/20 06:25:03;;;;;;;6.20;2.90;;;;;;;24.51;43.41;100786.62;107765;1244;63505;-85
2022/06/20 06:27:35;;;;;;;5.80;2.60;;;;;;;24.69;42.71;100783.84;107711;1243;72340;-82
2022/06/20 06:30:12;;;;;;;;;;;;;;;24.80;42.44;100784.77;107923;1244;70732;-83
2022/06/20 06:33:00;;;;;;;4.00;2.40;;;;;;;24.87;42.10;100786.73;108130;1243;63816;-82
2022/06/20 06:35:45;;;;;;;8.60;2.70;;;;;;;24.96;41.77;100786.52;109562;1242;58292;-81
2022/06/20 06:38:26;;;;;;;4.60;2.60;;;;;;;25.04;41.21;100784.66;109262;1243;60488;-81
2022/06/20 06:40:56;;;;;;;6.50;2.60;;;;;;;25.19;40.70;100784.20;108642;1244;64250;-83
2022/06/20 06:43:40;;;;;;;6.50;2.60;;;;;;;25.25;40.15;100777.05;108551;1243;72098;-84
2022/06/20 06:46:25;;;;;;;5.40;2.50;;;;;;;25.42;39.95;100782.80;108151;1244;70603;-85
2022/06/20 06:49:16;;;;;;;5.70;2.30;;;;;;;25.44;39.95;100782.59;108480;1242;62970;-82
2022/06/20 06:52:00;;;;;;;7.50;2.40;;;;;;;25.52;39.49;100782.06;108007;1245;59556;-85
2022/06/20 06:54:41;;;;;;;5.60;2.60;;;;;;;25.65;39.15;100773.20;108030;1243;60367;-83
2022/06/20 06:57:24;;;;;;;5.90;2.60;;;;;;;25.76;38.71;100770.45;108164;1243;75524;-83
2022/06/20 07:00:21;;;;;;;9.90;2.50;;;;;;;25.90;38.25;100770.70;108170;1242;62427;-83
2022/06/20 07:03:35;;;;;;;7.10;2.40;;;;;;;25.98;37.75;100768.95;107926;1244;59242;-83
2022/06/20 07:06:20;;;;;;;4.20;2.40;;;;;;;25.94;38.32;100764.34;107431;1244;62430;-83
2022/06/20 07:09:27;;;;;;;6.10;2.10;;;;;;;26.09;37.90;100761.75;108013;1244;58393;-82
2022/06/20 07:12:07;;;;;;;6.80;2.50;;;;;;;26.23;37.75;100758.27;108012;1243;59171;-83
2022/06/20 07:14:43;;;;;;;6.90;2.50;;;;;;;26.34;37.65;100756.75;108062;1244;63018;-81
2022/06/20 07:17:30;;;;;;;5.80;2.40;;;;;;;26.31;37.11;100756.55;107777;1243;72322;-84
2022/06/20 07:20:01;;;;;;;4.50;2.20;;;;;;;26.29;36.70;100755.83;108115;1243;59980;-83
2022/06/20 07:22:39;;;;;;;4.10;2.40;;;;;;;26.46;36.48;100757.17;107951;1243;73186;-84
2022/06/20 07:25:27;;;;;;;4.00;2.30;;;;;;;26.58;35.99;100756.20;107882;1243;61401;-85
2022/06/20 07:28:49;;;;;;;2.60;1.70;;;;;;;26.61;35.69;100756.96;108007;1243;59519;-85
2022/06/20 07:31:42;;;;;;;7.30;2.20;;;;;;;26.74;35.45;100752.89;108041;1243;62819;-82
2022/06/20 07:34:34;;;;;;;3.80;1.90;;;;;;;26.70;35.10;100749.73;107944;1244;61091;-85
2022/06/20 07:37:14;;;;;;;5.90;2.20;;;;;;;26.66;35.07;100748.04;108151;1243;60023;-86
2022/06/20 07:39:56;;;;;;;3.60;2.10;;;;;;;26.83;35.35;100743.66;108201;1244;62405;-86
2022/06/20 07:42:47;;;;;;;4.00;2.10;;;;;;;26.89;34.96;100740.04;108113;1243;61393;-85
2022/06/20 07:45:31;;;;;;;7.40;3.20;;;;;;;26.96;34.88;100734.06;107968;1243;59663;-82
2022/06/20 07:48:13;;;;;;;3.20;2.80;;;;;;;26.97;34.90;100728.31;108293;1244;64848;-84
2022/06/20 07:50:59;;;;;;;;;;;;;;;26.91;34.97;100722.14;108206;1244;61737;-86
2022/06/20 07:54:12;;;;;;;4.10;1.90;;;;;;;27.13;34.42;100722.40;108289;1243;59705;-85
2022/06/20 07:56:50;;;;;;;4.50;2.10;;;;;;;27.01;33.75;100715.18;107956;1244;64309;-83
2022/06/20 07:59:40;;;;;;;4.90;2.30;;;;;;;27.08;33.89;100716.36;107997;1244;58900;-84
2022/06/20 08:02:22;;;;;;;4.30;2.00;;;;;;;27.07;34.38;100713.24;107973;1244;61740;-83
2022/06/20 08:04:58;;;;;;;5.80;2.00;;;;;;;27.13;33.95;100715.02;107937;1246;63032;-85
2022/06/20 08:07:42;;;;;;;3.30;1.90;;;;;;;27.23;33.62;100710.55;107959;1244;61702;-86
2022/06/20 08:10:36;;;;;;;4.20;2.00;;;;;;;27.42;33.11;100713.17;107920;1244;59634;-82
2022/06/20 08:13:39;;;;;;;6.40;2.20;;;;;;;27.63;32.79;100708.71;108043;1244;62569;-82
2022/06/20 08:16:22;;;;;;;7.20;1.90;;;;;;;27.82;32.74;100710.48;108101;1243;60427;-84
2022/06/20 08:18:52;;;;;;;7.70;2.30;;;;;;;27.84;32.48;100710.38;108062;1243;59532;-81
2022/06/20 08:21:58;;;;;;;4.10;2.00;;;;;;;27.77;32.29;100706.33;108123;1243;74381;-84
2022/06/20 08:24:45;;;;;;;6.00;2.80;;;;;;;27.59;32.62;100702.52;107752;1244;72358;-87
2022/06/20 08:27:46;;;;;;;24.30;4.30;;;;;;;27.80;32.40;100699.83;108240;1243;60704;-86
2022/06/20 08:30:26;;;;;;;25.80;4.20;;;;;;;27.77;31.76;100699.08;108426;1244;63458;-84
2022/06/20 08:33:25;;;;;;;12.10;2.20;;;;;;;27.96;31.51;100704.19;108395;1243;58975;-80
2022/06/20 08:36:34;;;;;;;4.00;1.60;;;;;;;27.97;31.33;100696.45;108025;1244;58602;-80
2022/06/20 08:39:29;;;;;;;6.60;2.00;;;;;;;28.14;30.58;100693.45;108150;1243;62998;-81
2022/06/20 08:42:34;;;;;;;10.90;2.50;;;;;;;28.22;30.07;100689.06;107966;1244;61964;-81
2022/06/20 08:45:39;;;;;;;5.40;1.90;;;;;;;28.33;30.23;100690.09;108099;1243;69712;-83
2022/06/20 08:48:48;;;;;;;2.70;1.60;;;;;;;28.44;30.15;100688.42;108158;1244;63795;-86
2022/06/20 08:52:07;;;;;;;6.10;1.90;;;;;;;28.24;30.56;100682.02;108168;1244;59584;-82
2022/06/20 08:54:42;;;;;;;4.20;1.90;;;;;;;28.46;30.72;100678.79;108194;1243;59490;-84
2022/06/20 08:57:25;;;;;;;7.50;2.00;;;;;;;28.54;29.75;100681.20;108094;1243;73960;-83
2022/06/20 09:00:39;;;;;;;5.20;1.80;;;;;;;28.66;29.29;100678.73;108120;1243;72077;-84
2022/06/20 09:03:53;;;;;;;7.20;2.20;;;;;;;28.73;29.42;100676.27;108001;1244;61698;-85
2022/06/20 09:07:05;;;;;;;2.30;1.40;;;;;;;28.91;28.89;100679.34;107963;1244;74191;-82
2022/06/20 09:10:25;;;;;;;7.60;2.10;;;;;;;28.90;27.41;100683.45;107958;1244;60755;-83
2022/06/20 09:13:18;;;;;;;4.10;1.50;;;;;;;29.01;27.42;100685.67;107802;1244;58270;-84
2022/06/20 09:16:17;;;;;;;11.50;2.30;;;;;;;29.11;27.56;100679.28;107903;1244;63787;-82
2022/06/20 09:18:55;;;;;;;3.70;1.50;;;;;;;29.08;27.46;100674.06;107958;1243;61713;-84
2022/06/20 09:21:37;;;;;;;5.80;1.90;;;;;;;29.14;26.84;100663.60;107750;1243;69774;-85
2022/06/20 09:24:51;;;;;;;5.30;1.90;;;;;;;29.25;27.68;100660.23;108040;1243;74443;-84
2022/06/20 09:27:37;;;;;;;20.10;3.30;;;;;;;28.94;28.24;100659.25;108141;1244;59589;-79
2022/06/20 09:30:21;;;;;;;11.40;1.90;;;;;;;28.72;28.00;100655.12;107900;1245;59659;-83
2022/06/20 09:33:51;;;;;;;4.00;2.10;;;;;;;28.73;27.38;100659.08;108166;1244;64199;-84
2022/06/20 09:36:57;;;;;;;6.30;2.00;;;;;;;29.14;27.20;100656.98;108463;1244;71493;-83
2022/06/20 09:39:36;;;;;;;3.50;1.50;;;;;;;29.36;27.07;100652.36;108322;1242;70535;-86
2022/06/20 09:42:37;;;;;;;2.40;1.70;;;;;;;29.37;26.48;100645.65;108124;1244;73329;-86
2022/06/20 09:45:33;;;;;;;2.50;1.80;;;;;;;29.20;26.88;100642.44;108334;1244;62071;-82
2022/06/20 09:48:22;;;;;;;3.20;1.80;;;;;;;29.47;27.67;100645.39;108396;1243;59079;-84
2022/06/20 09:51:09;;;;;;;3.80;1.90;;;;;;;29.74;27.36;100649.33;108181;1244;73770;-84
2022/06/20 09:53:43;;;;;;;1.90;1.60;;;;;;;29.81;26.84;100650.50;108634;1244;73105;-82
2022/06/20 09:56:48;;;;;;;2.70;1.70;;;;;;;30.00;25.57;100649.39;108982;1244;60395;-83
2022/06/20 09:59:43;;;;;;;8.00;2.40;;;;;;;29.90;25.06;100643.85;108654;1244;73905;-83
2022/06/20 10:02:59;;;;;;;4.60;1.90;;;;;;;30.02;25.83;100643.23;108287;1244;61605;-86
2022/06/20 10:05:56;;;;;;;8.20;1.90;;;;;;;29.84;26.50;100640.84;108232;1244;59023;-87
2022/06/20 10:08:30;;;;;;;4.20;1.80;;;;;;;29.78;26.09;100631.15;108108;1244;74505;-84
2022/06/20 10:11:25;;;;;;;4.10;2.10;;;;;;;29.73;25.53;100625.75;108264;1244;62615;-84
2022/06/20 10:14:35;;;;;;;3.20;1.80;;;;;;;29.95;25.63;100622.85;108211;1244;69833;-82
2022/06/20 10:17:37;;;;;;;2.20;1.90;;;;;;;30.32;25.48;100621.48;108125;1244;64864;-83
2022/06/20 10:20:48;;;;;;;6.60;2.00;;;;;;;30.41;25.92;100622.63;108181;1243;61320;-83
2022/06/20 10:24:09;;;;;;;4.90;1.80;;;;;;;30.17;25.95;100618.58;108061;1244;58118;-84
2022/06/20 10:26:52;;;;;;;4.70;1.60;;;;;;;30.42;25.60;100609.38;108015;1244;73707;-83
2022/06/20 10:29:35;;;;;;;3.60;1.80;;;;;;;30.72;25.59;100614.34;108275;1244;61467;-85
2022/06/20 10:32:20;;;;;;;2.80;1.70;;;;;;;30.50;25.97;100614.30;108847;1243;69809;-84
2022/06/20 10:35:05;;;;;;;2.20;1.60;;;;;;;30.73;26.35;100610.48;109166;1244;72976;-84
2022/06/20 10:38:12;;;;;;;7.30;2.30;;;;;;;30.89;26.34;100612.77;108182;1242;61547;-82
2022/06/20 10:41:15;;;;;;;6.10;2.00;;;;;;;31.61;25.19;100609.59;107937;1245;61323;-82
2022/06/20 10:44:21;;;;;;;2.50;1.70;;;;;;;31.69;25.23;100604.78;108180;1244;74616;-82
2022/06/20 10:47:18;;;;;;;3.70;1.90;;;;;;;32.16;24.51;100601.59;108306;1243;72493;-84
2022/06/20 10:50:00;;;;;;;6.50;1.80;;;;;;;32.28;24.42;100592.26;108102;1244;71332;-82
2022/06/20 10:52:47;;;;;;;3.30;1.80;;;;;;;31.84;24.97;100584.38;108130;1244;74498;-84
2022/06/20 10:55:35;;;;;;;3.30;1.80;;;;;;;32.27;24.40;100579.48;108215;1244;59573;-83
2022/06/20 10:58:32;;;;;;;2.90;1.80;;;;;;;31.81;23.82;100560.70;108146;1243;60550;-83
2022/06/20 11:01:34;;;;;;;4.50;2.00;;;;;;;32.06;23.93;100550.21;107852;1244;64397;-84
2022/06/20 11:04:28;;;;;;;3.00;1.90;;;;;;;32.37;24.08;100546.27;108260;1244;72219;-84
2022/06/20 11:07:38;;;;;;;4.50;1.60;;;;;;;32.68;23.93;100542.44;108013;1243;71890;-84
2022/06/20 11:10:28;;;;;;;3.90;1.80;;;;;;;31.17;25.42;100532.84;108214;1243;64590;-81
2022/06/20 11:12:56;;;;;;;4.60;1.80;;;;;;;31.09;25.42;100526.84;108034;1244;61734;-86
2022/06/20 11:15:46;;;;;;;3.10;1.80;;;;;;;31.33;25.53;100524.94;108356;1244;62006;-85
2022/06/20 11:18:40;;;;;;;4.20;1.80;;;;;;;31.81;25.21;100526.33;107957;1244;64320;-85
2022/06/20 11:21:43;;;;;;;6.40;1.80;;;;;;;32.25;24.16;100531.72;107779;1244;71589;-84
2022/06/20 11:25:11;;;;;;;10.00;2.30;;;;;;;33.29;23.17;100532.20;107947;1244;59511;-86
2022/06/20 11:28:32;;;;;;;2.40;1.50;;;;;;;32.74;23.96;100523.70;108226;1244;73972;-83
2022/06/20 11:31:43;;;;;;;3.80;2.30;;;;;;;33.04;23.50;100518.19;107792;1244;631545;-86
2022/06/20 11:34:42;;;;;;;4.50;1.80;;;;;;;33.24;23.26;100509.09;108322;1244;59483;-84
2022/06/20 11:37:32;;;;;;;4.30;1.60;;;;;;;33.47;23.33;100507.55;107990;1244;63070;-84
2022/06/20 11:40:49;;;;;;;3.10;1.50;;;;;;;34.35;22.24;100510.50;108162;1244;60783;-84
2022/06/20 11:43:45;;;;;;;6.10;1.70;;;;;;;33.79;22.19;100506.83;107927;1242;69812;-85
2022/06/20 11:46:58;;;;;;;3.10;1.60;;;;;;;33.89;22.14;100498.29;107922;1244;74280;-83
2022/06/20 11:50:14;;;;;;;3.40;1.70;;;;;;;34.91;21.19;100489.79;108154;1244;61011;-85
2022/06/20 11:52:48;;;;;;;4.60;1.70;;;;;;;35.32;20.30;100493.36;107922;1245;59496;-79
2022/06/20 11:55:47;;;;;;;3.20;1.60;;;;;;;35.41;20.05;100484.43;108079;1244;63791;-82
2022/06/20 11:58:32;;;;;;;4.20;1.70;;;;;;;35.91;18.49;100485.66;107762;1244;63577;-82
2022/06/20 12:01:24;;;;;;;7.60;1.70;;;;;;;36.36;18.30;100488.93;108156;1244;59871;-80
2022/06/20 12:04:18;;;;;;;3.30;1.60;;;;;;;35.65;19.56;100493.91;108207;1244;64333;-83
2022/06/20 12:07:07;;;;;;;2.80;1.70;;;;;;;36.36;18.60;100488.67;108249;1244;58558;-82
2022/06/20 12:10:05;;;;;;;4.80;1.50;;;;;;;36.21;18.88;100484.05;108233;1244;58010;-81
2022/06/20 12:13:05;;;;;;;2.50;1.30;;;;;;;35.67;19.52;100477.00;108121;1244;63803;-83
2022/06/20 12:16:02;;;;;;;5.80;1.80;;;;;;;35.62;19.56;100475.40;108229;1244;71033;-82
2022/06/20 12:23:18;;;;;;;4.10;1.70;;;;;;;35.43;20.11;100474.24;108192;1244;71102;-84
2022/06/20 12:24:22;;;;;;;7.20;2.20;;;;;;;37.23;17.54;100459.71;109220;1244;61062;-84
2022/06/20 12:26:52;;;;;;;7.30;2.40;;;;;;;36.05;19.02;100461.42;108999;1243;57767;-84
2022/06/20 12:29:34;;;;;;;4.40;2.00;;;;;;;34.71;20.38;100459.13;108298;1243;73722;-84
2022/06/20 12:32:27;;;;;;;2.50;1.50;;;;;;;34.35;20.79;100458.50;108441;1244;70672;-84
2022/06/20 12:35:20;;;;;;;9.80;2.20;;;;;;;34.79;20.24;100456.77;108363;1244;60578;-82
2022/06/20 12:38:00;;;;;;;5.30;1.60;;;;;;;36.05;19.24;100453.11;108345;1244;73123;-83
2022/06/20 12:40:57;;;;;;;12.80;2.10;;;;;;;37.24;17.37;100447.31;108077;1244;61739;-84
2022/06/20 12:43:47;;;;;;;3.90;1.60;;;;;;;36.42;18.16;100446.95;108132;1244;59559;-86
2022/06/20 12:46:47;;;;;;;3.50;1.40;;;;;;;35.38;19.17;100441.48;108080;1243;65090;-85
2022/06/20 12:49:55;;;;;;;5.30;1.50;;;;;;;37.05;17.89;100452.35;108065;1244;61538;-85
2022/06/20 12:52:33;;;;;;;3.80;1.50;;;;;;;37.24;17.52;100447.47;107961;1244;60873;-82
2022/06/20 12:55:23;;;;;;;8.50;1.50;;;;;;;37.05;17.58;100434.59;107974;1244;63633;-83